Terminal Aerodrome Forecast
Issued by NWS

Home | Current Version | Previous Version | Text Only | Print | Product List | Glossary On
Versions: 1 2 3 4 5 6 7 8 9 10 11 12 13 14 15 16
000
FTUS43 KILX 201700 AAA
TAFCMI
TAF AMD
KCMI 201749Z 2018/2118 22014G22KT P6SM SCT025 BKN250
     FM202100 24014G22KT P6SM VCTS SCT040CB OVC050
      TEMPO 2021/2024 4SM TSRA BKN035CB
     FM210200 23009KT P6SM VCSH BKN045
     FM210700 26007KT 6SM BR SCT045
     FM211200 29012KT P6SM SCT035
     FM211700 30015G23KT P6SM BKN035=

USA.gov is the U.S. government's official web portal to all federal, state and local government web resources and services.